Time;durP1;ratioP1;P1;durP2;ratioP2;P2;SDS_P1;SDS_P2;PMS_P1;PMS_P2;Temp;Humidity;BMP_temperature;BMP_pressure;BME280_temperature;BME280_humidity;BME280_pressure;Samples;Min_cycle;Max_cycle;Signal;HPM_P1;HPM_P2
2023/09/18 00:00:11;;;;;;;;;;;;;;;22.03;64.86;100277.50;4197426;28;19928;-68
2023/09/18 00:02:13;;;;;;;;;;;;;;;22.01;64.91;100280.31;4197620;28;20007;-69
2023/09/18 00:04:14;;;;;;;;;;;;;;;22.02;64.91;100289.19;4197250;28;20068;-68
2023/09/18 00:06:16;;;;;;;;;;;;;;;22.03;64.97;100298.94;4197441;28;20433;-69
2023/09/18 00:08:22;;;;;;;;;;;;;;;22.03;64.85;100301.63;4196242;28;19959;-69
2023/09/18 00:10:25;;;;;;;;;;;;;;;22.01;65.07;100293.69;4197387;28;19925;-68
2023/09/18 00:12:27;;;;;;;;;;;;;;;22.00;65.34;100299.19;4197596;28;20235;-69
2023/09/18 00:14:29;;;;;;;;;;;;;;;22.01;65.16;100300.91;4197414;28;19931;-69
2023/09/18 00:16:31;;;;;;;;;;;;;;;22.00;65.31;100297.34;4197217;28;19949;-69
2023/09/18 00:18:48;;;;;;;;;;;;;;;22.00;64.93;100286.63;4197469;28;19929;-70
2023/09/18 00:20:51;;;;;;;;;;;;;;;21.99;64.75;100284.97;4197095;28;20020;-69
2023/09/18 00:22:54;;;;;;;;;;;;;;;22.00;65.28;100285.81;4196820;28;19940;-69
2023/09/18 00:24:56;;;;;;;;;;;;;;;21.99;65.01;100281.44;4179355;28;20346;-69
2023/09/18 00:26:58;;;;;;;;;;;;;;;21.98;64.94;100285.97;4197070;28;20015;-69
2023/09/18 00:28:59;;;;;;;;;;;;;;;21.97;65.24;100289.63;4197215;28;19977;-69
2023/09/18 00:31:01;;;;;;;;;;;;;;;21.96;65.21;100279.06;4197327;27;19924;-68
2023/09/18 00:33:02;;;;;;;;;;;;;;;21.94;65.48;100275.66;4179392;28;19925;-69
2023/09/18 00:35:04;;;;;;;;;;;;;;;21.95;65.59;100278.19;4197095;28;20026;-69
2023/09/18 00:37:06;;;;;;;;;;;;;;;21.94;65.23;100271.13;4196589;28;19934;-67
2023/09/18 00:39:08;;;;;;;;;;;;;;;21.95;65.44;100277.34;4196967;28;20358;-70
2023/09/18 00:41:09;;;;;;;;;;;;;;;21.94;65.64;100281.84;4196873;28;19924;-69
2023/09/18 00:43:11;;;;;;;;;;;;;;;21.93;65.44;100282.81;4197077;28;19931;-70
2023/09/18 00:45:12;;;;;;;;;;;;;;;21.93;65.48;100282.00;4196937;28;20027;-68
2023/09/18 00:47:15;;;;;;;;;;;;;;;21.91;65.03;100271.44;4196804;28;19928;-69
2023/09/18 00:49:18;;;;;;;;;;;;;;;21.92;65.24;100275.81;4197122;27;19925;-69
2023/09/18 00:51:20;;;;;;;;;;;;;;;21.91;65.20;100263.41;4196593;28;19924;-68
2023/09/18 00:53:23;;;;;;;;;;;;;;;21.92;65.34;100272.25;4196861;28;19948;-68
2023/09/18 00:55:25;;;;;;;;;;;;;;;21.92;65.03;100280.28;4196713;28;19925;-69
2023/09/18 00:57:27;;;;;;;;;;;;;;;21.79;65.24;100277.91;4178749;28;19967;-69
2023/09/18 00:59:28;;;;;;;;;;;;;;;21.87;65.24;100302.13;4196884;28;20291;-68
2023/09/18 01:01:30;;;;;;;;;;;;;;;21.89;65.14;100297.50;4196874;28;20309;-68
2023/09/18 01:03:32;;;;;;;;;;;;;;;21.88;65.05;100309.19;4197000;27;19925;-68
2023/09/18 01:05:34;;;;;;;;;;;;;;;21.86;64.92;100306.66;4178758;28;19928;-68
2023/09/18 01:07:35;;;;;;;;;;;;;;;21.85;65.00;100296.91;4196574;28;19944;-69
2023/09/18 01:09:37;;;;;;;;;;;;;;;21.85;65.53;100290.72;4196055;28;20312;-70
2023/09/18 01:12:02;;;;;;;;;;;;;;;21.83;64.96;100298.88;4195853;28;20441;-69
2023/09/18 01:14:09;;;;;;;;;;;;;;;21.84;65.23;100294.38;4201316;28;19928;-70
2023/09/18 01:16:30;;;;;;;;;;;;;;;21.81;64.63;100291.97;4196328;28;20259;-68
2023/09/18 01:18:31;;;;;;;;;;;;;;;21.82;64.77;100291.84;4196615;28;19929;-69
2023/09/18 01:20:33;;;;;;;;;;;;;;;21.83;64.97;100292.69;4195925;27;19924;-69
2023/09/18 01:22:34;;;;;;;;;;;;;;;21.77;64.79;100285.22;4196424;28;19935;-68
2023/09/18 01:24:37;;;;;;;;;;;;;;;21.80;64.41;100274.22;4196667;27;20331;-68
2023/09/18 01:26:39;;;;;;;;;;;;;;;21.79;64.65;100273.38;4196332;28;20015;-69
2023/09/18 01:28:40;;;;;;;;;;;;;;;21.80;64.76;100279.56;4196673;28;20021;-68
2023/09/18 01:30:42;;;;;;;;;;;;;;;21.78;64.84;100278.88;4196346;28;20301;-69
2023/09/18 01:32:45;;;;;;;;;;;;;;;21.78;64.97;100281.56;4196275;28;20018;-69
2023/09/18 01:34:51;;;;;;;;;;;;;;;21.76;65.14;100283.53;4196014;28;19969;-69
2023/09/18 01:36:53;;;;;;;;;;;;;;;21.75;64.93;100288.03;4178662;28;20413;-69
2023/09/18 01:38:55;;;;;;;;;;;;;;;21.74;65.01;100282.81;4196330;28;19936;-69
2023/09/18 01:40:57;;;;;;;;;;;;;;;21.73;64.99;100281.97;4196253;28;19932;-69
2023/09/18 01:42:58;;;;;;;;;;;;;;;21.72;64.96;100285.63;4196256;28;19936;-68
2023/09/18 01:45:00;;;;;;;;;;;;;;;21.72;64.39;100292.81;4196283;28;20026;-69
2023/09/18 01:47:03;;;;;;;;;;;;;;;21.74;64.65;100302.41;4196090;28;19956;-68
2023/09/18 01:49:04;;;;;;;;;;;;;;;21.73;64.68;100295.34;4195769;28;19936;-69
2023/09/18 01:51:07;;;;;;;;;;;;;;;21.73;64.35;100281.97;4196201;27;19964;-68
2023/09/18 01:53:08;;;;;;;;;;;;;;;21.72;64.78;100282.13;4196096;28;19924;-69
2023/09/18 01:55:10;;;;;;;;;;;;;;;21.70;64.72;100283.09;4196027;28;20397;-69
2023/09/18 01:57:12;;;;;;;;;;;;;;;21.69;64.73;100285.91;4196005;28;19931;-69
2023/09/18 01:59:14;;;;;;;;;;;;;;;21.68;64.41;100285.06;4196027;28;19984;-69
2023/09/18 02:01:16;;;;;;;;;;;;;;;21.70;64.47;100277.75;4196227;28;19929;-69
2023/09/18 02:03:20;;;;;;;;;;;;;;;21.69;64.53;100277.88;4195595;28;19925;-69
2023/09/18 02:05:32;;;;;;;;;;;;;;;21.70;64.25;100284.91;4195726;28;19935;-69
2023/09/18 02:07:35;;;;;;;;;;;;;;;21.69;64.08;100283.25;4195802;28;20365;-69
2023/09/18 02:09:37;;;;;;;;;;;;;;;21.69;63.89;100273.38;4195859;28;20437;-69
2023/09/18 02:11:40;;;;;;;;;;;;;;;21.67;64.41;100280.69;4195998;28;19925;-69
2023/09/18 02:13:42;;;;;;;;;;;;;;;21.67;64.24;100283.34;4195942;28;20022;-70
2023/09/18 02:15:44;;;;;;;;;;;;;;;21.64;64.32;100286.31;4195793;28;19924;-69
2023/09/18 02:17:50;;;;;;;;;;;;;;;21.65;64.35;100287.16;4210517;28;19924;-69
2023/09/18 02:19:52;;;;;;;;;;;;;;;21.62;64.03;100290.13;4195558;27;19977;-69
2023/09/18 02:21:55;;;;;;;;;;;;;;;21.63;64.02;100289.97;4195085;28;19925;-69
2023/09/18 02:23:57;;;;;;;;;;;;;;;21.63;63.89;100295.34;4195684;28;19931;-69
2023/09/18 02:25:59;;;;;;;;;;;;;;;21.62;63.81;100293.63;4195602;28;19925;-68
2023/09/18 02:28:06;;;;;;;;;;;;;;;21.63;63.98;100302.50;4178595;28;20044;-69
2023/09/18 02:30:13;;;;;;;;;;;;;;;21.61;63.96;100297.28;4195671;28;19928;-69
2023/09/18 02:32:14;;;;;;;;;;;;;;;21.60;64.00;100294.75;4195313;28;20346;-68
2023/09/18 02:34:18;;;;;;;;;;;;;;;21.59;64.40;100296.56;4195560;28;20385;-68
2023/09/18 02:36:20;;;;;;;;;;;;;;;21.57;64.25;100301.22;4195443;28;19925;-68
2023/09/18 02:38:21;;;;;;;;;;;;;;;21.58;63.91;100307.41;4195784;28;20344;-68
2023/09/18 02:40:23;;;;;;;;;;;;;;;21.59;63.88;100301.09;4195352;28;19924;-68
2023/09/18 02:42:25;;;;;;;;;;;;;;;21.56;63.87;100299.50;4195327;28;19950;-68
2023/09/18 02:44:26;;;;;;;;;;;;;;;21.56;64.24;100310.22;4195553;27;20442;-68
2023/09/18 02:46:29;;;;;;;;;;;;;;;21.53;64.39;100299.75;4195403;28;20386;-68
2023/09/18 02:48:31;;;;;;;;;;;;;;;21.54;64.32;100305.00;4195481;28;20309;-68
2023/09/18 02:50:38;;;;;;;;;;;;;;;21.53;63.84;100299.75;4195221;28;19974;-69
2023/09/18 02:52:39;;;;;;;;;;;;;;;21.53;64.06;100295.28;4195199;28;19974;-69
2023/09/18 02:54:41;;;;;;;;;;;;;;;21.50;64.03;100300.88;4195303;28;20425;-68
2023/09/18 02:56:43;;;;;;;;;;;;;;;21.52;64.35;100304.28;4195276;28;19928;-68
2023/09/18 02:58:45;;;;;;;;;;;;;;;21.50;63.99;100298.22;4195250;28;20176;-69
2023/09/18 03:00:47;;;;;;;;;;;;;;;21.51;64.41;100304.44;4195190;28;19932;-69
2023/09/18 03:02:54;;;;;;;;;;;;;;;21.46;64.50;100299.47;4194921;28;19928;-68
2023/09/18 03:04:56;;;;;;;;;;;;;;;21.45;64.12;100291.59;4195180;28;20309;-68
2023/09/18 03:06:57;;;;;;;;;;;;;;;21.46;63.94;100294.13;4195242;28;20297;-68
2023/09/18 03:08:59;;;;;;;;;;;;;;;21.45;64.35;100287.06;4194993;28;20299;-68
2023/09/18 03:11:00;;;;;;;;;;;;;;;21.42;64.24;100287.34;4195177;28;20445;-68
2023/09/18 03:13:02;;;;;;;;;;;;;;;21.42;64.15;100284.66;4194832;28;19946;-68
2023/09/18 03:15:09;;;;;;;;;;;;;;;21.40;64.58;100275.94;4194945;28;19925;-68
2023/09/18 03:17:15;;;;;;;;;;;;;;;21.40;63.92;100281.28;4194254;28;19929;-69
2023/09/18 03:19:17;;;;;;;;;;;;;;;21.40;64.20;100286.66;4195145;28;19924;-67
2023/09/18 03:21:19;;;;;;;;;;;;;;;21.40;64.23;100281.28;4194711;27;19924;-67
2023/09/18 03:23:20;;;;;;;;;;;;;;;21.38;64.25;100281.41;4210400;28;20325;-68
2023/09/18 03:25:23;;;;;;;;;;;;;;;21.39;64.11;100269.72;4194790;28;19924;-68
2023/09/18 03:27:28;;;;;;;;;;;;;;;21.37;64.52;100274.38;4194876;28;19924;-68
2023/09/18 03:29:30;;;;;;;;;;;;;;;21.38;64.21;100272.53;4194613;28;19983;-68
2023/09/18 03:31:31;;;;;;;;;;;;;;;21.36;64.33;100269.16;4194348;28;19931;-68
2023/09/18 03:33:33;;;;;;;;;;;;;;;21.34;64.69;100271.97;4193865;28;20282;-68
2023/09/18 03:35:45;;;;;;;;;;;;;;;21.35;64.39;100273.66;4194632;28;19934;-68
2023/09/18 03:37:48;;;;;;;;;;;;;;;21.36;64.07;100271.81;4194709;28;19925;-68
2023/09/18 03:39:49;;;;;;;;;;;;;;;21.35;64.33;100273.66;4194457;28;19968;-68
2023/09/18 03:41:51;;;;;;;;;;;;;;;21.34;64.39;100271.13;4194715;28;19931;-68
2023/09/18 03:43:53;;;;;;;;;;;;;;;21.34;64.24;100269.31;4194639;28;20286;-68
2023/09/18 03:45:54;;;;;;;;;;;;;;;21.35;64.21;100267.47;4194289;28;19928;-68
2023/09/18 03:47:56;;;;;;;;;;;;;;;21.34;64.32;100273.81;4194498;28;19928;-67
2023/09/18 03:49:57;;;;;;;;;;;;;;;21.34;64.39;100273.81;4194567;28;19924;-67
2023/09/18 03:51:59;;;;;;;;;;;;;;;21.35;64.17;100270.13;4194935;27;20012;-69
2023/09/18 03:54:01;;;;;;;;;;;;;;;21.35;63.87;100270.13;4194556;28;20438;-70
2023/09/18 03:56:02;;;;;;;;;;;;;;;21.34;64.23;100266.63;4194670;27;19924;-69
2023/09/18 03:58:05;;;;;;;;;;;;;;;21.33;64.03;100269.44;4194591;28;19925;-69
2023/09/18 04:00:07;;;;;;;;;;;;;;;21.33;63.97;100264.94;4194063;28;20354;-69
2023/09/18 04:02:09;;;;;;;;;;;;;;;21.31;64.12;100266.91;4194703;28;20022;-69
2023/09/18 04:04:11;;;;;;;;;;;;;;;21.31;64.18;100263.38;4194402;28;19928;-69
2023/09/18 04:06:13;;;;;;;;;;;;;;;21.31;64.17;100258.88;4176851;28;19925;-69
2023/09/18 04:08:14;;;;;;;;;;;;;;;21.32;64.09;100257.88;4194444;28;20008;-69
2023/09/18 04:10:22;;;;;;;;;;;;;;;21.30;64.18;100264.34;4194241;28;20424;-69
2023/09/18 04:12:25;;;;;;;;;;;;;;;21.27;64.30;100262.78;4194398;28;19932;-69
2023/09/18 04:14:27;;;;;;;;;;;;;;;21.27;64.13;100265.47;4194210;28;20339;-70
2023/09/18 04:16:30;;;;;;;;;;;;;;;21.27;64.29;100268.16;4194228;28;19925;-69
2023/09/18 04:18:32;;;;;;;;;;;;;;;21.27;64.02;100256.63;4194390;28;20377;-70
2023/09/18 04:20:35;;;;;;;;;;;;;;;21.27;64.14;100264.63;4194006;28;19932;-69
2023/09/18 04:22:42;;;;;;;;;;;;;;;21.24;63.85;100263.09;4194189;28;19929;-69
2023/09/18 04:24:43;;;;;;;;;;;;;;;21.25;64.10;100259.41;4194216;28;19956;-68
2023/09/18 04:26:45;;;;;;;;;;;;;;;21.23;64.03;100267.56;4194307;28;20331;-69
2023/09/18 04:28:47;;;;;;;;;;;;;;;21.25;64.18;100263.91;4193989;28;19981;-69
2023/09/18 04:30:49;;;;;;;;;;;;;;;21.22;64.20;100259.69;4194231;28;20669;-69
2023/09/18 04:32:51;;;;;;;;;;;;;;;21.22;64.20;100255.16;4194107;28;19925;-69
2023/09/18 04:34:53;;;;;;;;;;;;;;;21.22;64.25;100260.53;4194178;28;19928;-68
2023/09/18 04:36:55;;;;;;;;;;;;;;;21.20;64.42;100262.50;4194101;28;19928;-69
2023/09/18 04:38:57;;;;;;;;;;;;;;;21.20;64.49;100270.53;4194113;28;19983;-69
2023/09/18 04:41:01;;;;;;;;;;;;;;;21.21;64.52;100271.38;4192809;28;20012;-68
2023/09/18 04:43:05;;;;;;;;;;;;;;;21.20;64.22;100262.50;4193931;28;20330;-68
2023/09/18 04:45:07;;;;;;;;;;;;;;;21.22;64.48;100262.38;4195484;28;19943;-69
2023/09/18 04:47:09;;;;;;;;;;;;;;;21.23;64.17;100264.06;4179014;28;19932;-69
2023/09/18 04:49:11;;;;;;;;;;;;;;;21.20;63.95;100250.94;4196948;28;20070;-69
2023/09/18 04:51:12;;;;;;;;;;;;;;;21.21;64.19;100250.81;4196825;28;19924;-69
2023/09/18 04:53:14;;;;;;;;;;;;;;;21.20;64.36;100257.16;4196916;28;19925;-68
2023/09/18 04:55:16;;;;;;;;;;;;;;;21.18;64.25;100259.09;4196888;27;19925;-69
2023/09/18 04:57:17;;;;;;;;;;;;;;;21.21;64.35;100261.50;4196695;28;19928;-69
2023/09/18 04:59:20;;;;;;;;;;;;;;;21.20;64.61;100259.84;4196660;28;19949;-68
2023/09/18 05:01:21;;;;;;;;;;;;;;;21.15;64.33;100262.03;4196877;28;19960;-68
2023/09/18 05:03:23;;;;;;;;;;;;;;;21.18;64.49;100266.25;4196810;28;19924;-69
2023/09/18 05:05:25;;;;;;;;;;;;;;;21.17;64.63;100261.94;4196673;28;19925;-68
2023/09/18 05:07:27;;;;;;;;;;;;;;;21.18;64.54;100264.47;4196535;28;20373;-69
2023/09/18 05:09:28;;;;;;;;;;;;;;;21.18;64.74;100260.91;4196715;28;19982;-69
2023/09/18 05:11:31;;;;;;;;;;;;;;;21.18;64.77;100260.91;4196439;28;19954;-68
2023/09/18 05:13:33;;;;;;;;;;;;;;;21.17;64.56;100254.75;4196612;28;19973;-69
2023/09/18 05:15:34;;;;;;;;;;;;;;;21.18;64.56;100256.44;4196524;28;20301;-68
2023/09/18 05:17:41;;;;;;;;;;;;;;;21.16;64.52;100254.88;4196477;28;20019;-68
2023/09/18 05:19:44;;;;;;;;;;;;;;;21.10;64.38;100256.25;4196512;27;19977;-68
2023/09/18 05:21:46;;;;;;;;;;;;;;;21.13;64.51;100269.38;4196454;28;20445;-69
2023/09/18 05:23:48;;;;;;;;;;;;;;;21.16;64.45;100265.56;4196360;28;19928;-69
2023/09/18 05:25:49;;;;;;;;;;;;;;;21.17;64.43;100262.75;4196267;28;19928;-68
2023/09/18 05:27:58;;;;;;;;;;;;;;;21.14;64.53;100262.19;4196014;28;19947;-68
2023/09/18 05:30:00;;;;;;;;;;;;;;;21.15;64.52;100263.88;4196491;28;19924;-68
2023/09/18 05:32:02;;;;;;;;;;;;;;;21.16;64.36;100270.94;4196334;28;20397;-67
2023/09/18 05:34:03;;;;;;;;;;;;;;;21.14;64.27;100275.56;4178660;28;19925;-68
2023/09/18 05:36:05;;;;;;;;;;;;;;;21.16;64.40;100278.94;4196524;28;20362;-68
2023/09/18 05:38:13;;;;;;;;;;;;;;;21.15;64.31;100271.91;4196156;28;20016;-68
2023/09/18 05:40:15;;;;;;;;;;;;;;;21.15;64.26;100275.41;4196364;28;20015;-69
2023/09/18 05:42:16;;;;;;;;;;;;;;;21.10;64.55;100271.47;4196016;28;19924;-68
2023/09/18 05:44:18;;;;;;;;;;;;;;;21.12;64.20;100275.69;4196066;28;19968;-68
2023/09/18 05:46:20;;;;;;;;;;;;;;;21.07;64.60;100267.25;4196068;28;19973;-68
2023/09/18 05:48:22;;;;;;;;;;;;;;;21.12;64.52;100270.34;4196262;28;19950;-68
2023/09/18 05:50:29;;;;;;;;;;;;;;;21.09;64.28;100265.25;4196100;28;19929;-69
2023/09/18 05:52:32;;;;;;;;;;;;;;;21.10;64.37;100269.63;4196291;28;19956;-69
2023/09/18 05:54:33;;;;;;;;;;;;;;;21.10;64.25;100276.81;4196055;28;19953;-69
2023/09/18 05:56:35;;;;;;;;;;;;;;;;;;4194814;28;19924;-69
2023/09/18 05:58:37;;;;;;;;;;;;;;;21.13;64.36;100292.56;4196119;28;20378;-68
2023/09/18 06:00:39;;;;;;;;;;;;;;;21.12;64.28;100290.88;4195771;28;19929;-69
2023/09/18 06:02:40;;;;;;;;;;;;;;;21.10;64.33;100280.31;4195957;28;19925;-69
2023/09/18 06:04:43;;;;;;;;;;;;;;;21.12;64.52;100288.19;4178217;28;20382;-68
2023/09/18 06:06:46;;;;;;;;;;;;;;;21.09;64.70;100297.34;4195891;28;20028;-68
2023/09/18 06:08:47;;;;;;;;;;;;;;;21.09;64.70;100307.19;4195795;28;19992;-69
2023/09/18 06:10:49;;;;;;;;;;;;;;;21.10;64.74;100295.53;4195611;28;20401;-69
2023/09/18 06:12:51;;;;;;;;;;;;;;;21.10;64.25;100303.56;4195898;28;19977;-69
2023/09/18 06:14:52;;;;;;;;;;;;;;;21.10;64.47;100303.56;4195650;28;19925;-68
2023/09/18 06:16:54;;;;;;;;;;;;;;;21.10;64.31;100308.91;4195675;28;19969;-68
2023/09/18 06:18:55;;;;;;;;;;;;;;;21.09;64.42;100308.03;4195791;28;19964;-68
2023/09/18 06:20:57;;;;;;;;;;;;;;;21.10;64.38;100307.06;4195385;28;19931;-69
2023/09/18 06:22:59;;;;;;;;;;;;;;;21.09;64.64;100309.88;4195714;28;19936;-68
2023/09/18 06:25:06;;;;;;;;;;;;;;;21.05;64.72;100306.63;4195393;28;19940;-69
2023/09/18 06:27:07;;;;;;;;;;;;;;;21.09;64.11;100305.34;4195496;28;19931;-68
2023/09/18 06:29:09;;;;;;;;;;;;;;;21.06;64.38;100303.81;4195527;28;19928;-70
2023/09/18 06:31:12;;;;;;;;;;;;;;;21.07;64.29;100304.66;4195753;28;20369;-69
2023/09/18 06:33:14;;;;;;;;;;;;;;;21.04;64.60;100299.56;4195677;28;19931;-69
2023/09/18 06:35:15;;;;;;;;;;;;;;;21.05;64.40;100302.09;4195522;28;20024;-69
2023/09/18 06:37:18;;;;;;;;;;;;;;;21.07;64.39;100296.66;4195489;28;20309;-69
2023/09/18 06:39:23;;;;;;;;;;;;;;;21.03;64.59;100305.91;4195182;28;20397;-69
2023/09/18 06:41:25;;;;;;;;;;;;;;;21.01;64.83;100302.50;4195535;28;19925;-70
2023/09/18 06:43:27;;;;;;;;;;;;;;;21.02;64.71;100307.72;4195416;28;19932;-67
2023/09/18 06:45:28;;;;;;;;;;;;;;;21.02;64.99;100312.22;4195565;28;20422;-68
2023/09/18 06:47:30;;;;;;;;;;;;;;;21.05;64.66;100310.13;4195065;28;19936;-68
2023/09/18 06:49:32;;;;;;;;;;;;;;;21.06;64.64;100301.13;4195331;28;20011;-67
2023/09/18 06:51:33;;;;;;;;;;;;;;;21.08;64.61;100311.69;4210676;28;20353;-68
2023/09/18 06:53:44;;;;;;;;;;;;;;;21.10;64.94;100316.91;4194847;28;19925;-66
2023/09/18 06:55:46;;;;;;;;;;;;;;;21.10;64.77;100301.72;4195186;28;19929;-68
2023/09/18 06:57:48;;;;;;;;;;;;;;;21.12;64.29;100313.13;4195197;28;19929;-67
2023/09/18 06:59:50;;;;;;;;;;;;;;;21.15;63.80;100312.00;4195108;28;19973;-68
2023/09/18 07:01:52;;;;;;;;;;;;;;;21.17;63.72;100304.72;4195202;28;19939;-68
2023/09/18 07:03:54;;;;;;;;;;;;;;;21.19;63.60;100310.75;4195108;28;19969;-67
2023/09/18 07:05:56;;;;;;;;;;;;;;;21.18;63.69;100312.59;4195373;28;19994;-68
2023/09/18 07:07:58;;;;;;;;;;;;;;;21.21;63.88;100314.97;4194517;28;19977;-68
2023/09/18 07:09:59;;;;;;;;;;;;;;;21.19;64.01;100316.09;4195129;28;20143;-68
2023/09/18 07:12:04;;;;;;;;;;;;;;;21.21;63.85;100325.69;4195215;28;19925;-68
2023/09/18 07:14:06;;;;;;;;;;;;;;;21.19;64.01;100325.00;4194951;28;19931;-67
2023/09/18 07:16:08;;;;;;;;;;;;;;;21.20;64.12;100334.72;4194677;28;20007;-68
2023/09/18 07:18:13;;;;;;;;;;;;;;;21.22;64.01;100342.59;4194923;28;19928;-68
2023/09/18 07:20:16;;;;;;;;;;;;;;;21.23;64.03;100339.78;4194508;27;19994;-68
2023/09/18 07:22:20;;;;;;;;;;;;;;;21.25;63.47;100341.47;4194465;28;19928;-68
2023/09/18 07:24:22;;;;;;;;;;;;;;;21.26;63.85;100340.50;4194981;28;20393;-67
2023/09/18 07:26:23;;;;;;;;;;;;;;;21.25;63.34;100336.13;4194683;28;20417;-68
2023/09/18 07:28:25;;;;;;;;;;;;;;;21.27;63.43;100331.50;4194766;28;19924;-66
2023/09/18 07:30:27;;;;;;;;;;;;;;;21.27;63.54;100337.69;4194803;28;20011;-66
2023/09/18 07:32:28;;;;;;;;;;;;;;;21.28;63.08;100339.38;4194802;28;19992;-67
2023/09/18 07:34:40;;;;;;;;;;;;;;;21.28;63.51;100336.72;4194893;28;19932;-66
2023/09/18 07:36:41;;;;;;;;;;;;;;;21.25;63.86;100342.31;4209819;28;20431;-65
2023/09/18 07:38:43;;;;;;;;;;;;;;;21.27;63.42;100348.38;4194754;28;19984;-66
2023/09/18 07:40:46;;;;;;;;;;;;;;;21.28;63.47;100347.41;4194453;28;19925;-66
2023/09/18 07:42:48;;;;;;;;;;;;;;;21.28;63.76;100346.56;4194298;28;19985;-66
2023/09/18 07:44:50;;;;;;;;;;;;;;;21.28;63.75;100351.94;4194566;28;19963;-66
2023/09/18 07:46:51;;;;;;;;;;;;;;;21.26;63.61;100344.00;4194459;28;20003;-66
2023/09/18 07:48:53;;;;;;;;;;;;;;;21.26;63.68;100337.81;4194669;28;19924;-66
2023/09/18 07:50:55;;;;;;;;;;;;;;;21.26;63.61;100337.81;4194504;28;20393;-66
2023/09/18 07:52:57;;;;;;;;;;;;;;;21.25;63.34;100339.63;4194090;28;19946;-66
2023/09/18 07:54:59;;;;;;;;;;;;;;;21.27;63.62;100343.03;4194517;28;19967;-66
2023/09/18 07:57:01;;;;;;;;;;;;;;;21.26;63.55;100341.34;4194561;28;20320;-66
2023/09/18 07:59:02;;;;;;;;;;;;;;;21.31;63.63;100340.94;4194552;28;20397;-66
2023/09/18 08:01:05;;;;;;;;;;;;;;;21.31;63.63;100340.94;4194287;28;19924;-66
2023/09/18 08:03:07;;;;;;;;;;;;;;;21.34;63.27;100346.03;4194517;28;20367;-66
2023/09/18 08:05:09;;;;;;;;;;;;;;;21.37;63.00;100340.41;4194402;28;19981;-66
2023/09/18 08:07:12;;;;;;;;;;;;;;;21.39;63.22;100349.97;4193867;28;19928;-66
2023/09/18 08:09:15;;;;;;;;;;;;;;;21.31;62.93;100323.09;4194160;28;20008;-66
2023/09/18 08:11:18;;;;;;;;;;;;;;;21.42;63.25;100332.81;4194200;28;19925;-66
2023/09/18 08:13:20;;;;;;;;;;;;;;;21.44;62.84;100340.72;4194232;28;19929;-66
2023/09/18 08:15:21;;;;;;;;;;;;;;;21.46;63.09;100344.97;4194197;28;20419;-66
2023/09/18 08:17:23;;;;;;;;;;;;;;;21.47;62.83;100352.00;4194121;27;19971;-66
2023/09/18 08:19:28;;;;;;;;;;;;;;;21.48;62.87;100353.72;4194545;28;19924;-66
2023/09/18 08:21:30;;;;;;;;;;;;;;;21.48;62.68;100343.00;4196672;27;19999;-66
2023/09/18 08:23:32;;;;;;;;;;;;;;;21.50;62.73;100350.88;4197208;28;19924;-66
2023/09/18 08:25:34;;;;;;;;;;;;;;;21.51;62.47;100347.22;4197172;28;19932;-66
2023/09/18 08:27:41;;;;;;;;;;;;;;;21.50;62.80;100359.75;4197197;28;19924;-66
2023/09/18 08:29:44;;;;;;;;;;;;;;;21.51;62.31;100348.06;4196987;28;19967;-66
2023/09/18 08:31:46;;;;;;;;;;;;;;;21.53;62.37;100345.25;4196953;28;20023;-66
2023/09/18 08:33:47;;;;;;;;;;;;;;;21.50;62.68;100345.53;4197022;28;20060;-66
2023/09/18 08:35:49;;;;;;;;;;;;;;;21.52;62.51;100344.41;4196767;28;19925;-65
2023/09/18 08:37:51;;;;;;;;;;;;;;;21.52;62.34;100347.09;4196952;28;20397;-66
2023/09/18 08:39:53;;;;;;;;;;;;;;;21.53;62.31;100348.78;4196863;28;19944;-66
2023/09/18 08:41:57;;;;;;;;;;;;;;;21.54;62.39;100347.81;4197054;28;20386;-66
2023/09/18 08:44:05;;;;;;;;;;;;;;;21.54;62.17;100344.28;4196951;28;19925;-66
2023/09/18 08:46:06;;;;;;;;;;;;;;;21.55;62.16;100352.16;4197067;28;19949;-66
2023/09/18 08:48:09;;;;;;;;;;;;;;;21.57;62.46;100353.88;4196643;28;19924;-65
2023/09/18 08:50:11;;;;;;;;;;;;;;;21.54;62.63;100371.03;4196603;28;19928;-66
2023/09/18 08:52:15;;;;;;;;;;;;;;;21.54;62.52;100373.69;4196623;28;19947;-66
2023/09/18 08:54:17;;;;;;;;;;;;;;;21.54;62.62;100379.06;4196782;28;19932;-66
2023/09/18 08:56:20;;;;;;;;;;;;;;;21.55;62.30;100376.25;4196879;27;19977;-66
2023/09/18 08:58:22;;;;;;;;;;;;;;;21.56;62.29;100371.75;4196831;28;20407;-66
2023/09/18 09:00:23;;;;;;;;;;;;;;;21.57;62.53;100377.97;4196828;28;19931;-66
2023/09/18 09:02:25;;;;;;;;;;;;;;;21.56;62.32;100371.75;4196730;28;19931;-66
2023/09/18 09:04:27;;;;;;;;;;;;;;;21.58;62.07;100380.53;4196437;28;19929;-66
2023/09/18 09:06:29;;;;;;;;;;;;;;;21.57;62.49;100367.25;4196618;28;19928;-66
2023/09/18 09:08:30;;;;;;;;;;;;;;;21.57;62.41;100367.25;4196462;28;20019;-66
2023/09/18 09:10:32;;;;;;;;;;;;;;;21.57;62.32;100369.94;4196504;27;19977;-66
2023/09/18 09:12:51;;;;;;;;;;;;;;;21.58;62.26;100371.63;4196528;28;19925;-66
2023/09/18 09:15:02;;;;;;;;;;;;;;;21.57;62.30;100365.47;4196277;28;20019;-66
2023/09/18 09:17:04;;;;;;;;;;;;;;;21.61;61.99;100377.56;4196341;28;20274;-66
2023/09/18 09:19:05;;;;;;;;;;;;;;;21.64;62.22;100365.75;4196136;28;20016;-66
2023/09/18 09:21:07;;;;;;;;;;;;;;;21.66;61.86;100361.13;4196262;27;19997;-66
2023/09/18 09:23:10;;;;;;;;;;;;;;;21.67;61.95;100360.13;4196391;28;20023;-66
2023/09/18 09:25:31;;;;;;;;;;;;;;;21.68;62.12;100369.88;4196531;28;19973;-67
2023/09/18 09:27:44;;;;;;;;;;;;;;;21.69;61.80;100361.69;4196386;28;19928;-66
2023/09/18 09:29:57;;;;;;;;;;;;;;;21.69;61.88;100363.53;4196427;28;20010;-67
2023/09/18 09:32:12;;;;;;;;;;;;;;;21.69;61.60;100350.16;4195028;28;19931;-66
2023/09/18 09:34:25;;;;;;;;;;;;;;;21.70;61.57;100347.31;4195905;28;20019;-66
2023/09/18 09:36:27;;;;;;;;;;;;;;;21.70;61.64;100349.13;4196068;28;19929;-66
2023/09/18 09:38:33;;;;;;;;;;;;;;;21.68;61.54;100349.28;4196095;28;20044;-66
2023/09/18 09:40:37;;;;;;;;;;;;;;;21.68;61.78;100369.88;4196033;28;19950;-66
2023/09/18 09:42:40;;;;;;;;;;;;;;;21.68;61.60;100360.00;4196063;28;19932;-66
2023/09/18 09:44:42;;;;;;;;;;;;;;;21.69;61.67;100367.03;4196193;28;19969;-66
2023/09/18 09:46:48;;;;;;;;;;;;;;;21.70;61.59;100367.88;4195958;28;20305;-66
2023/09/18 09:49:06;;;;;;;;;;;;;;;21.70;61.66;100363.38;4195684;28;19974;-66
2023/09/18 09:51:08;;;;;;;;;;;;;;;21.70;61.40;100363.38;4196238;28;20381;-66
2023/09/18 09:53:10;;;;;;;;;;;;;;;21.70;61.34;100362.53;4195935;28;20529;-67
2023/09/18 09:55:25;;;;;;;;;;;;;;;21.71;61.40;100356.19;4195872;28;19931;-66
2023/09/18 09:57:26;;;;;;;;;;;;;;;21.70;61.43;100358.03;4196007;28;20300;-67
2023/09/18 09:59:29;;;;;;;;;;;;;;;21.72;61.45;100365.09;4195860;28;19968;-69
2023/09/18 10:01:31;;;;;;;;;;;;;;;21.71;61.21;100366.91;4195385;28;19931;-66
2023/09/18 10:03:32;;;;;;;;;;;;;;;21.62;61.23;100351.69;4196063;28;19975;-66
2023/09/18 10:05:36;;;;;;;;;;;;;;;21.73;61.44;100364.09;4195897;28;19924;-67
2023/09/18 10:07:38;;;;;;;;;;;;;;;21.73;61.37;100375.66;4195749;28;19925;-67
2023/09/18 10:09:41;;;;;;;;;;;;;;;21.64;61.16;100358.59;4195777;28;20310;-66
2023/09/18 10:11:45;;;;;;;;;;;;;;;21.74;61.05;100368.44;4195986;28;20305;-65
2023/09/18 10:14:07;;;;;;;;;;;;;;;21.74;60.95;100363.97;4195909;28;20408;-66
2023/09/18 10:16:10;;;;;;;;;;;;;;;21.74;60.88;100361.28;4195391;28;19928;-66
2023/09/18 10:18:27;;;;;;;;;;;;;;;21.75;61.03;100359.44;4177663;28;19929;-66
2023/09/18 10:20:29;;;;;;;;;;;;;;;21.74;60.91;100358.63;4195731;28;19924;-66
2023/09/18 10:22:37;;;;;;;;;;;;;;;21.74;60.59;100363.97;4195623;28;19933;-66
2023/09/18 10:24:41;;;;;;;;;;;;;;;21.76;60.54;100369.16;4195524;28;20016;-66
2023/09/18 10:26:53;;;;;;;;;;;;;;;21.77;60.45;100373.56;4178581;28;19925;-66
2023/09/18 10:28:58;;;;;;;;;;;;;;;21.76;60.45;100372.69;4195286;28;20023;-65
2023/09/18 10:31:01;;;;;;;;;;;;;;;21.76;60.65;100382.56;4195085;28;20353;-66
2023/09/18 10:33:03;;;;;;;;;;;;;;;21.78;60.26;100368.06;4195750;28;19925;-65